createdAt,value
2023-04-12T00:04:22.914Z,9.90
2023-04-12T00:11:44.457Z,9.60
2023-04-12T00:14:11.332Z,9.60
2023-04-12T00:19:06.833Z,9.20
2023-04-12T00:21:33.717Z,9.30
2023-04-12T00:26:28.328Z,9.00
2023-04-12T00:28:55.489Z,9.10
2023-04-12T00:33:49.769Z,8.90
2023-04-12T00:36:17.240Z,9.00
2023-04-12T00:38:46.164Z,9.40
2023-04-12T00:41:14.460Z,9.30
2023-04-12T00:43:42.296Z,9.40
2023-04-12T00:46:09.997Z,9.50
2023-04-12T00:48:37.879Z,9.00
2023-04-12T00:51:07.405Z,8.90
2023-04-12T00:53:34.832Z,8.70
2023-04-12T00:56:01.912Z,8.90
2023-04-12T01:06:41.420Z,8.60
2023-04-12T01:09:27.389Z,8.40
2023-04-12T01:12:35.776Z,8.40
2023-04-12T01:15:09.976Z,8.30
2023-04-12T01:17:45.543Z,8.70
2023-04-12T01:20:16.828Z,8.80
2023-04-12T01:23:04.614Z,8.90
2023-04-12T01:25:57.657Z,9.00
2023-04-12T01:28:33.884Z,9.10
2023-04-12T01:31:04.700Z,9.00
2023-04-12T01:33:34.110Z,9.10
2023-04-12T01:36:05.049Z,9.10
2023-04-12T01:38:34.233Z,9.00
2023-04-12T01:41:01.429Z,8.90
2023-04-12T01:43:28.251Z,9.10
2023-04-12T01:45:55.339Z,8.80
2023-04-12T01:51:14.692Z,8.60
2023-04-12T01:53:53.433Z,8.80
2023-04-12T01:58:50.810Z,8.80
2023-04-12T02:01:19.364Z,8.90
2023-04-12T02:03:49.947Z,8.70
2023-04-12T02:06:22.727Z,8.10
2023-04-12T02:08:50.019Z,8.00
2023-04-12T02:11:16.851Z,8.00
2023-04-12T02:16:14.227Z,8.30
2023-04-12T02:23:36.532Z,8.60
2023-04-12T02:26:03.752Z,8.60
2023-04-12T02:28:30.813Z,8.50
2023-04-12T02:33:25.549Z,8.60
2023-04-12T02:35:52.580Z,8.60
2023-04-12T02:45:41.432Z,7.80
2023-04-12T02:50:37.956Z,7.90
2023-04-12T02:53:04.904Z,8.10
2023-04-12T02:57:59.141Z,8.50
2023-04-12T03:00:25.994Z,8.50
2023-04-12T03:05:20.502Z,8.50
2023-04-12T03:07:47.407Z,8.60
2023-04-12T03:15:09.880Z,8.20
2023-04-12T03:17:36.761Z,8.30
2023-04-12T03:20:07.851Z,8.10
2023-04-12T03:25:05.186Z,7.80
2023-04-12T03:27:32.247Z,8.00
2023-04-12T03:32:26.455Z,8.20
2023-04-12T03:34:53.335Z,8.00
2023-04-12T03:37:20.343Z,7.90
2023-04-12T03:42:25.808Z,7.60
2023-04-12T03:44:58.846Z,7.60
2023-04-12T03:50:10.423Z,7.80
2023-04-12T03:52:39.154Z,8.00
2023-04-12T03:55:07.604Z,8.00
2023-04-12T03:57:35.302Z,7.80
2023-04-12T04:00:02.749Z,7.90
2023-04-12T04:02:30.117Z,7.80
2023-04-12T04:09:51.535Z,7.60
2023-04-12T04:12:18.310Z,7.50
2023-04-12T04:14:45.410Z,7.40
2023-04-12T04:19:39.552Z,7.40
2023-04-12T04:24:34.276Z,7.40
2023-04-12T04:29:29.853Z,7.40
2023-04-12T04:34:25.589Z,7.40
2023-04-12T04:41:54.658Z,7.20
2023-04-12T04:44:21.942Z,7.10
2023-04-12T04:51:44.098Z,6.90
2023-04-12T05:01:36.638Z,6.50
2023-04-12T05:04:04.335Z,6.70
2023-04-12T05:08:58.981Z,6.70
2023-04-12T05:16:20.755Z,6.80
2023-04-12T05:21:14.896Z,6.80
2023-04-12T05:23:47.178Z,6.90
2023-04-12T05:28:41.381Z,7.00
2023-04-12T05:40:58.968Z,7.50
2023-04-12T05:43:25.816Z,7.70
2023-04-12T05:50:52.209Z,7.70
2023-04-12T05:53:19.266Z,7.80
2023-04-12T06:00:45.277Z,7.90
2023-04-12T06:03:12.601Z,7.70
2023-04-12T06:08:08.520Z,7.60
2023-04-12T06:10:35.520Z,7.60
2023-04-12T06:13:02.346Z,7.70
2023-04-12T06:20:27.620Z,8.30
2023-04-12T06:30:18.535Z,8.10
2023-04-12T06:32:45.792Z,8.40
2023-04-12T06:37:39.858Z,8.70
2023-04-12T06:40:08.258Z,8.80
2023-04-12T06:42:35.364Z,9.00
2023-04-12T06:45:02.308Z,9.50
2023-04-12T06:47:29.725Z,9.40
2023-04-12T06:49:58.227Z,9.40
2023-04-12T06:52:28.286Z,9.40
2023-04-12T06:54:57.027Z,9.70
2023-04-12T06:59:52.250Z,10.00
2023-04-12T07:04:47.347Z,10.50
2023-04-12T07:09:41.480Z,10.20
2023-04-12T07:17:02.880Z,10.90
2023-04-12T07:21:58.645Z,11.90
2023-04-12T07:26:55.891Z,12.20
2023-04-12T07:29:23.594Z,12.40
2023-04-12T07:34:18.123Z,12.20
2023-04-12T07:39:12.662Z,12.50
2023-04-12T07:41:39.962Z,11.80
2023-04-12T07:46:34.440Z,11.70
2023-04-12T07:51:28.578Z,11.70
2023-04-12T07:53:55.883Z,12.00
2023-04-12T07:56:22.879Z,12.40
2023-04-12T08:03:44.869Z,13.20
2023-04-12T08:06:12.597Z,12.80
2023-04-12T08:11:06.762Z,11.90
2023-04-12T08:13:34.729Z,11.40
2023-04-12T08:16:02.037Z,11.40
2023-04-12T08:20:58.292Z,11.10
2023-04-12T08:26:00.050Z,11.10
2023-04-12T08:28:28.773Z,11.50
2023-04-12T08:35:50.473Z,11.20
2023-04-12T08:38:17.352Z,11.10
2023-04-12T08:43:14.517Z,11.80
2023-04-12T08:48:09.186Z,11.60
2023-04-12T08:50:36.786Z,11.30
2023-04-12T08:57:58.974Z,11.30
2023-04-12T09:00:26.401Z,11.30
2023-04-12T09:02:53.644Z,11.60
2023-04-12T09:05:27.229Z,11.40
2023-04-12T09:07:54.140Z,11.40
2023-04-12T09:10:35.216Z,11.20
2023-04-12T09:15:30.974Z,11.90
2023-04-12T09:18:06.946Z,12.40
2023-04-12T09:20:34.182Z,12.30
2023-04-12T09:23:02.860Z,12.60
2023-04-12T09:25:40.798Z,12.90
2023-04-12T09:28:27.803Z,12.60
2023-04-12T09:30:55.694Z,12.80
2023-04-12T09:33:34.263Z,12.80
2023-04-12T09:36:02.995Z,13.10
2023-04-12T09:38:31.447Z,13.40
2023-04-12T09:41:01.992Z,14.00
2023-04-12T09:43:40.966Z,14.90
2023-04-12T09:46:16.482Z,14.90
2023-04-12T09:48:51.240Z,15.00
2023-04-12T09:51:31.365Z,14.80
2023-04-12T09:54:06.917Z,15.10
2023-04-12T09:56:35.962Z,15.30
2023-04-12T09:59:04.710Z,15.90
2023-04-12T10:01:51.401Z,16.60
2023-04-12T10:04:19.806Z,16.30
2023-04-12T10:09:14.634Z,17.30
2023-04-12T10:11:42.287Z,17.40
2023-04-12T10:14:09.991Z,18.20
2023-04-12T10:19:04.705Z,17.90
2023-04-12T10:21:32.021Z,18.40
2023-04-12T10:23:59.820Z,18.70
2023-04-12T10:26:27.656Z,18.40
2023-04-12T10:29:25.955Z,18.40
2023-04-12T10:31:57.847Z,20.40
2023-04-12T10:34:28.980Z,19.40
2023-04-12T10:37:00.587Z,18.70
2023-04-12T10:39:41.134Z,19.50
2023-04-12T10:42:31.388Z,19.70
2023-04-12T10:45:24.205Z,19.80
2023-04-12T10:47:54.701Z,19.90
2023-04-12T10:50:25.673Z,19.90
2023-04-12T10:53:12.713Z,21.10
2023-04-12T10:55:40.969Z,20.00
2023-04-12T10:58:07.788Z,20.50
2023-04-12T11:00:56.831Z,20.50
2023-04-12T11:03:24.863Z,21.00
2023-04-12T11:06:06.446Z,20.30
2023-04-12T11:08:41.126Z,19.70
2023-04-12T11:11:19.786Z,18.10
2023-04-12T11:13:46.857Z,17.40
2023-04-12T11:18:41.347Z,16.60
2023-04-12T11:21:08.524Z,16.50
2023-04-12T11:23:36.430Z,16.00
2023-04-12T11:26:05.030Z,16.20
2023-04-12T11:31:03.626Z,16.30
2023-04-12T11:33:38.592Z,16.60
2023-04-12T11:36:12.300Z,17.80
2023-04-12T11:38:39.823Z,18.70
2023-04-12T11:41:08.913Z,18.90
2023-04-12T11:43:38.963Z,18.70
2023-04-12T11:46:06.416Z,20.60
2023-04-12T11:48:33.783Z,19.70
2023-04-12T11:56:06.450Z,17.60
2023-04-12T11:58:33.352Z,17.20
2023-04-12T12:01:00.892Z,16.50
2023-04-12T12:03:28.686Z,15.90
2023-04-12T12:05:56.582Z,15.80
2023-04-12T12:13:48.944Z,15.10
2023-04-12T12:16:17.499Z,15.00
2023-04-12T12:18:46.012Z,14.90
2023-04-12T12:21:14.302Z,14.70
2023-04-12T12:23:43.779Z,14.80
2023-04-12T12:26:19.601Z,14.60
2023-04-12T12:28:53.938Z,18.30
2023-04-12T12:31:23.241Z,15.20
2023-04-12T12:33:54.168Z,14.60
2023-04-12T12:36:21.228Z,14.80
2023-04-12T12:38:49.379Z,14.80
2023-04-12T12:41:21.631Z,14.60
2023-04-12T12:43:51.508Z,14.00
2023-04-12T12:46:20.105Z,13.70
2023-04-12T12:48:48.103Z,13.30
2023-04-12T12:51:17.906Z,13.10
2023-04-12T12:53:45.327Z,13.00
2023-04-12T12:56:13.746Z,13.30
2023-04-12T12:58:41.434Z,13.20
2023-04-12T13:01:08.724Z,13.00
2023-04-12T13:08:35.198Z,12.80
2023-04-12T13:11:02.162Z,12.90
2023-04-12T13:15:56.415Z,12.90
2023-04-12T13:18:23.269Z,12.90
2023-04-12T13:23:17.563Z,12.80
2023-04-12T13:33:07.140Z,12.80
2023-04-12T13:40:28.785Z,12.80
2023-04-12T13:42:55.809Z,12.80
2023-04-12T13:45:23.114Z,13.00
2023-04-12T13:55:12.710Z,13.30
2023-04-12T13:57:39.617Z,13.20
2023-04-12T14:02:34.424Z,13.30
2023-04-12T14:14:51.902Z,13.00
2023-04-12T14:17:18.795Z,13.00
2023-04-12T14:27:08.681Z,12.80
2023-04-12T14:29:36.891Z,12.90
2023-04-12T14:41:55.365Z,12.60
2023-04-12T14:46:53.446Z,12.70
2023-04-12T14:49:20.509Z,12.60
2023-04-12T14:51:47.465Z,12.60
2023-04-12T14:59:19.582Z,12.70
2023-04-12T15:01:46.647Z,12.90
2023-04-12T15:04:13.968Z,12.90
2023-04-12T15:06:42.693Z,12.90
2023-04-12T15:09:10.153Z,12.90
2023-04-12T15:11:38.325Z,12.80
2023-04-12T15:16:35.318Z,12.80
2023-04-12T15:26:35.071Z,13.60
2023-04-12T15:39:01.062Z,13.30
2023-04-12T15:41:32.842Z,13.10
2023-04-12T15:43:59.898Z,13.00
2023-04-12T15:46:27.048Z,12.90
2023-04-12T15:51:21.222Z,13.10
2023-04-12T15:53:48.042Z,13.10
2023-04-12T15:56:19.873Z,13.00
2023-04-12T15:58:47.458Z,13.00
2023-04-12T16:01:14.327Z,13.00
2023-04-12T16:03:42.885Z,12.90
2023-04-12T16:06:10.060Z,12.80
2023-04-12T16:08:36.993Z,12.90
2023-04-12T16:11:04.030Z,12.70
2023-04-12T16:13:30.963Z,12.70
2023-04-12T16:15:57.951Z,12.70
2023-04-12T16:18:24.765Z,12.70
2023-04-12T16:20:52.247Z,12.70
2023-04-12T16:23:19.149Z,12.60
2023-04-12T16:25:45.970Z,12.50
2023-04-12T16:28:14.527Z,12.40
2023-04-12T16:30:42.052Z,12.30
2023-04-12T16:35:36.681Z,12.40
2023-04-12T16:38:04.497Z,12.30
2023-04-12T16:40:31.762Z,12.30
2023-04-12T16:42:59.034Z,12.30
2023-04-12T16:45:25.994Z,12.30
2023-04-12T16:47:53.084Z,12.30
2023-04-12T16:50:20.983Z,12.30
2023-04-12T16:52:49.744Z,12.30
2023-04-12T16:55:16.868Z,12.30
2023-04-12T16:57:45.165Z,12.20
2023-04-12T17:00:19.551Z,12.10
2023-04-12T17:02:49.165Z,12.20
2023-04-12T17:05:18.154Z,12.20
2023-04-12T17:07:47.977Z,13.90
2023-04-12T17:10:18.769Z,12.30
2023-04-12T17:12:46.583Z,12.40
2023-04-12T17:15:16.239Z,12.60
2023-04-12T17:17:48.908Z,12.60
2023-04-12T17:20:16.901Z,12.60
2023-04-12T17:22:44.075Z,12.60
2023-04-12T17:25:11.781Z,12.50
2023-04-12T17:27:39.077Z,12.40
2023-04-12T17:30:11.828Z,12.30
2023-04-12T17:32:41.859Z,12.10
2023-04-12T17:35:09.260Z,12.00
2023-04-12T17:37:40.291Z,12.10
2023-04-12T17:40:14.056Z,12.10
2023-04-12T17:42:42.371Z,12.00
2023-04-12T17:45:14.718Z,12.00
2023-04-12T17:47:42.885Z,11.70
2023-04-12T17:50:11.235Z,11.60
2023-04-12T17:52:38.470Z,11.40
2023-04-12T17:55:07.597Z,11.40
2023-04-12T17:57:34.717Z,11.50
2023-04-12T18:00:01.543Z,11.20
2023-04-12T18:02:28.874Z,10.80
2023-04-12T18:04:56.007Z,10.80
2023-04-12T18:07:23.170Z,10.70
2023-04-12T18:09:50.741Z,10.50
2023-04-12T18:12:17.599Z,10.60
2023-04-12T18:14:44.992Z,10.50
2023-04-12T18:17:11.927Z,10.40
2023-04-12T18:19:38.767Z,10.40
2023-04-12T18:22:05.915Z,10.60
2023-04-12T18:24:33.090Z,10.80
2023-04-12T18:27:00.198Z,10.90
2023-04-12T18:29:27.300Z,10.90
2023-04-12T18:31:54.441Z,10.70
2023-04-12T18:34:22.766Z,10.60
2023-04-12T18:36:49.967Z,10.60
2023-04-12T18:39:16.897Z,10.70
2023-04-12T18:41:43.787Z,10.70
2023-04-12T18:44:11.936Z,10.70
2023-04-12T18:46:42.202Z,10.70
2023-04-12T18:49:09.194Z,10.50
2023-04-12T18:51:36.333Z,10.40
2023-04-12T18:54:04.144Z,10.30
2023-04-12T18:56:31.083Z,10.30
2023-04-12T19:01:25.503Z,10.30
2023-04-12T19:03:52.578Z,10.20
2023-04-12T19:06:19.688Z,10.10
2023-04-12T19:08:46.692Z,10.10
2023-04-12T19:11:13.572Z,10.10
2023-04-12T19:13:40.462Z,10.10
2023-04-12T19:16:08.027Z,10.00
2023-04-12T19:18:35.363Z,9.90
2023-04-12T19:21:02.876Z,9.90
2023-04-12T19:23:30.565Z,9.90
2023-04-12T19:25:59.889Z,9.80
2023-04-12T19:28:27.475Z,9.80
2023-04-12T19:30:54.955Z,9.70
2023-04-12T19:33:21.828Z,9.80
2023-04-12T19:35:48.815Z,9.80
2023-04-12T19:38:15.895Z,9.80
2023-04-12T19:40:43.234Z,9.80
2023-04-12T19:43:10.268Z,9.80
2023-04-12T19:45:37.869Z,9.70
2023-04-12T19:48:05.067Z,9.80
2023-04-12T19:50:31.988Z,9.80
2023-04-12T19:52:58.971Z,9.90
2023-04-12T19:55:26.090Z,9.80
2023-04-12T19:57:53.193Z,9.90
2023-04-12T20:00:20.917Z,9.80
2023-04-12T20:02:51.889Z,9.80
2023-04-12T20:05:21.210Z,9.80
2023-04-12T20:07:48.150Z,9.80
2023-04-12T20:10:15.705Z,9.70
2023-04-12T20:12:42.791Z,9.70
2023-04-12T20:15:11.915Z,9.60
2023-04-12T20:17:42.816Z,9.70
2023-04-12T20:20:11.016Z,9.70
2023-04-12T20:22:39.350Z,9.50
2023-04-12T20:25:06.540Z,9.50
2023-04-12T20:27:33.782Z,9.50
2023-04-12T20:30:00.778Z,9.50
2023-04-12T20:32:30.571Z,9.30
2023-04-12T20:34:58.384Z,9.30
2023-04-12T20:37:25.486Z,9.30
2023-04-12T20:39:52.501Z,9.30
2023-04-12T20:42:21.403Z,9.30
2023-04-12T20:44:48.511Z,9.30
2023-04-12T20:47:15.686Z,9.30
2023-04-12T20:49:43.435Z,9.40
2023-04-12T20:52:11.051Z,9.50
2023-04-12T20:54:38.533Z,9.40
2023-04-12T20:57:05.420Z,9.30
2023-04-12T20:59:32.531Z,9.30
2023-04-12T21:02:00.873Z,9.40
2023-04-12T21:04:28.173Z,9.40
2023-04-12T21:06:55.636Z,9.20
2023-04-12T21:09:23.548Z,9.20
2023-04-12T21:11:52.469Z,9.30
2023-04-12T21:14:20.556Z,9.20
2023-04-12T21:16:48.929Z,9.30
2023-04-12T21:19:18.197Z,9.40
2023-04-12T21:21:46.600Z,9.50
2023-04-12T21:24:13.714Z,9.40
2023-04-12T21:26:43.060Z,9.50
2023-04-12T21:29:11.237Z,9.50
2023-04-12T21:31:39.216Z,9.50
2023-04-12T21:36:34.312Z,9.50
2023-04-12T21:39:01.590Z,9.50
2023-04-12T21:41:29.735Z,9.40
2023-04-12T21:43:56.770Z,9.30
2023-04-12T21:46:27.736Z,9.10
2023-04-12T21:48:54.699Z,9.10
2023-04-12T21:53:50.433Z,9.20
2023-04-12T21:56:17.360Z,9.20
2023-04-12T21:58:44.224Z,9.20
2023-04-12T22:01:11.029Z,9.20
2023-04-12T22:03:38.180Z,9.20
2023-04-12T22:06:05.774Z,9.20
2023-04-12T22:08:33.240Z,9.10
2023-04-12T22:11:00.603Z,9.10
2023-04-12T22:13:28.198Z,9.10
2023-04-12T22:15:55.070Z,9.00
2023-04-12T22:18:22.155Z,8.90
2023-04-12T22:20:49.122Z,8.90
2023-04-12T22:25:45.757Z,8.90
2023-04-12T22:28:12.634Z,8.80
2023-04-12T22:33:08.514Z,8.90
2023-04-12T22:35:36.443Z,8.70
2023-04-12T22:38:04.222Z,8.70
2023-04-12T22:40:31.135Z,8.60
2023-04-12T22:47:53.134Z,8.70
2023-04-12T22:50:20.301Z,8.40
2023-04-12T23:00:14.941Z,8.60
2023-04-12T23:07:41.265Z,8.70
2023-04-12T23:10:08.883Z,8.40
2023-04-12T23:12:37.476Z,8.60
2023-04-12T23:17:33.905Z,8.90
2023-04-12T23:20:02.203Z,8.40
2023-04-12T23:22:55.136Z,8.40
2023-04-12T23:25:41.372Z,8.60
2023-04-12T23:28:13.506Z,8.70
2023-04-12T23:30:48.635Z,8.80
2023-04-12T23:33:20.376Z,8.50
2023-04-12T23:35:53.034Z,8.50
2023-04-12T23:38:24.519Z,8.40
2023-04-12T23:43:23.296Z,8.80
2023-04-12T23:53:13.488Z,8.10
2023-04-12T23:55:42.227Z,8.30
2023-04-12T23:58:09.791Z,8.30
